JAT997 SAME-SCEL
Flight info
| Callsign | JAT997 |
|---|---|
| Flight time | 0h 38m |
| Altitude | 26000 |
| Route | UMKAL2G UMKAL UMKAL7C |
| Aircraft | A320/M-SDE3FGHIRWY/LB1 |
Departure
| Time | 2026-05-09 01:42 |
|---|---|
| Airport | Governor Francisco Gabrielli International Airport (SAME) |
Arrival
| Time | 2026-05-09 02:20 |
|---|---|
| Airport | Comodoro Arturo Merino Benítez International Airport (SCEL) |
| Time | Latitude | Longitude | Altitude | Speed | Heading |
|---|---|---|---|---|---|
| 2026-05-09 01:10 | -32.82764 | -68.79779 | 2317 ft | 0 kts | 265° |
| 2026-05-09 01:30 | -32.82763 | -68.79761 | 2379 ft | 3 kts | 266° |
| 2026-05-09 01:31 | -32.82761 | -68.79733 | 2377 ft | 3 kts | 258° |
| 2026-05-09 01:31 | -32.82752 | -68.79710 | 2375 ft | 3 kts | 205° |
| 2026-05-09 01:31 | -32.82733 | -68.79707 | 2377 ft | 3 kts | 180° |
| 2026-05-09 01:31 | -32.82729 | -68.79707 | 2377 ft | 0 kts | 181° |
| 2026-05-09 01:35 | -32.82731 | -68.79706 | 2377 ft | 0 kts | 173° |
| 2026-05-09 01:35 | -32.82735 | -68.79702 | 2379 ft | 0 kts | 143° |
| 2026-05-09 01:36 | -32.82736 | -68.79699 | 2380 ft | 1 kts | 126° |
| 2026-05-09 01:36 | -32.82737 | -68.79694 | 2379 ft | 0 kts | 98° |
| 2026-05-09 01:36 | -32.82736 | -68.79693 | 2379 ft | 0 kts | 94° |
| 2026-05-09 01:36 | -32.82736 | -68.79688 | 2377 ft | 4 kts | 85° |
| 2026-05-09 01:37 | -32.82727 | -68.79668 | 2374 ft | 3 kts | 52° |
| 2026-05-09 01:37 | -32.82701 | -68.79646 | 2375 ft | 6 kts | 37° |
| 2026-05-09 01:37 | -32.82678 | -68.79600 | 2369 ft | 6 kts | 89° |
| 2026-05-09 01:37 | -32.82665 | -68.79546 | 2371 ft | 8 kts | 67° |
| 2026-05-09 01:38 | -32.82623 | -68.79505 | 2372 ft | 9 kts | 14° |
| 2026-05-09 01:38 | -32.82554 | -68.79501 | 2372 ft | 11 kts | 1° |
| 2026-05-09 01:38 | -32.82466 | -68.79500 | 2372 ft | 14 kts | 1° |
| 2026-05-09 01:38 | -32.82360 | -68.79498 | 2373 ft | 16 kts | 1° |
| 2026-05-09 01:39 | -32.82238 | -68.79495 | 2372 ft | 19 kts | 1° |
| 2026-05-09 01:39 | -32.82101 | -68.79493 | 2370 ft | 18 kts | 1° |
| 2026-05-09 01:39 | -32.81999 | -68.79491 | 2371 ft | 11 kts | 1° |
| 2026-05-09 01:39 | -32.81937 | -68.79472 | 2372 ft | 10 kts | 30° |
| 2026-05-09 01:40 | -32.81895 | -68.79407 | 2371 ft | 9 kts | 79° |
| 2026-05-09 01:40 | -32.81904 | -68.79347 | 2370 ft | 7 kts | 118° |
| 2026-05-09 01:40 | -32.81926 | -68.79311 | 2370 ft | 2 kts | 112° |
| 2026-05-09 01:40 | -32.81937 | -68.79286 | 2370 ft | 4 kts | 125° |
| 2026-05-09 01:41 | -32.81965 | -68.79268 | 2367 ft | 5 kts | 170° |
| 2026-05-09 01:41 | -32.81978 | -68.79267 | 2367 ft | 1 kts | 180° |
| 2026-05-09 01:41 | -32.82106 | -68.79269 | 2367 ft | 50 kts | 181° |
| 2026-05-09 01:41 | -32.82679 | -68.79279 | 2373 ft | 109 kts | 181° |
| 2026-05-09 01:42 | -32.83589 | -68.79304 | 2407 ft | 153 kts | 182° |
| 2026-05-09 01:42 | -32.84635 | -68.79404 | 2997 ft | 156 kts | 186° |
| 2026-05-09 01:42 | -32.85771 | -68.79595 | 3592 ft | 166 kts | 182° |
| 2026-05-09 01:42 | -32.86943 | -68.79621 | 4313 ft | 173 kts | 175° |
| 2026-05-09 01:43 | -32.88180 | -68.79525 | 4783 ft | 185 kts | 175° |
| 2026-05-09 01:43 | -32.89530 | -68.79432 | 5077 ft | 207 kts | 177° |
| 2026-05-09 01:43 | -32.91049 | -68.79239 | 5409 ft | 235 kts | 163° |
| 2026-05-09 01:43 | -32.92508 | -68.78234 | 5747 ft | 251 kts | 136° |
| 2026-05-09 01:44 | -32.93374 | -68.76465 | 6049 ft | 259 kts | 108° |
| 2026-05-09 01:44 | -32.93669 | -68.74280 | 6366 ft | 264 kts | 101° |
| 2026-05-09 01:44 | -32.93895 | -68.72118 | 6682 ft | 264 kts | 101° |
| 2026-05-09 01:44 | -32.94124 | -68.69965 | 6972 ft | 266 kts | 102° |
| 2026-05-09 01:45 | -32.94370 | -68.67784 | 7276 ft | 268 kts | 102° |
| 2026-05-09 01:45 | -32.94630 | -68.65567 | 7582 ft | 271 kts | 102° |
| 2026-05-09 01:45 | -32.94892 | -68.63359 | 7895 ft | 273 kts | 102° |
| 2026-05-09 01:45 | -32.95164 | -68.61081 | 8204 ft | 274 kts | 102° |
| 2026-05-09 01:46 | -32.95434 | -68.58821 | 8512 ft | 278 kts | 102° |
| 2026-05-09 01:46 | -32.95706 | -68.56541 | 8825 ft | 281 kts | 102° |
| 2026-05-09 01:46 | -32.95982 | -68.54216 | 9147 ft | 283 kts | 102° |
| 2026-05-09 01:46 | -32.96258 | -68.51870 | 9471 ft | 287 kts | 102° |
| 2026-05-09 01:47 | -32.96524 | -68.49497 | 9786 ft | 292 kts | 97° |
| 2026-05-09 01:47 | -32.96266 | -68.47070 | 10129 ft | 303 kts | 72° |
| 2026-05-09 01:47 | -32.95160 | -68.44924 | 10425 ft | 311 kts | 45° |
| 2026-05-09 01:47 | -32.93319 | -68.43444 | 10741 ft | 332 kts | 20° |
| 2026-05-09 01:48 | -32.91032 | -68.42918 | 11039 ft | 341 kts | 356° |
| 2026-05-09 01:48 | -32.88757 | -68.43469 | 11332 ft | 335 kts | 333° |
| 2026-05-09 01:48 | -32.86834 | -68.45023 | 11630 ft | 330 kts | 312° |
| 2026-05-09 01:48 | -32.85284 | -68.46999 | 11940 ft | 331 kts | 308° |
| 2026-05-09 01:49 | -32.83824 | -68.49097 | 12243 ft | 329 kts | 298° |
| 2026-05-09 01:49 | -32.82899 | -68.51562 | 12554 ft | 325 kts | 280° |
| 2026-05-09 01:49 | -32.82695 | -68.54218 | 12868 ft | 323 kts | 264° |
| 2026-05-09 01:49 | -32.82793 | -68.56942 | 13189 ft | 336 kts | 265° |
| 2026-05-09 01:50 | -32.82869 | -68.59728 | 13508 ft | 338 kts | 265° |
| 2026-05-09 01:50 | -32.82933 | -68.62506 | 13826 ft | 339 kts | 265° |
| 2026-05-09 01:50 | -32.82994 | -68.65327 | 14141 ft | 341 kts | 266° |
| 2026-05-09 01:50 | -32.83056 | -68.68152 | 14423 ft | 341 kts | 266° |
| 2026-05-09 01:51 | -32.83118 | -68.70978 | 14710 ft | 342 kts | 266° |
| 2026-05-09 01:51 | -32.83180 | -68.73809 | 15013 ft | 342 kts | 266° |
| 2026-05-09 01:51 | -32.83242 | -68.76646 | 15305 ft | 343 kts | 266° |
| 2026-05-09 01:51 | -32.83302 | -68.79440 | 15596 ft | 342 kts | 266° |
| 2026-05-09 01:52 | -32.83352 | -68.81351 | 15797 ft | 342 kts | 265° |
| 2026-05-09 01:52 | -32.83451 | -68.84172 | 16102 ft | 341 kts | 264° |
| 2026-05-09 01:52 | -32.83595 | -68.87899 | 16501 ft | 342 kts | 264° |
| 2026-05-09 01:52 | -32.83669 | -68.89821 | 16713 ft | 342 kts | 264° |
| 2026-05-09 01:53 | -32.83772 | -68.92591 | 17019 ft | 341 kts | 264° |
| 2026-05-09 01:53 | -32.83873 | -68.95428 | 17345 ft | 342 kts | 264° |
| 2026-05-09 01:53 | -32.83975 | -68.98288 | 17646 ft | 341 kts | 264° |
| 2026-05-09 01:53 | -32.84074 | -69.01111 | 17991 ft | 342 kts | 264° |
| 2026-05-09 01:54 | -32.84172 | -69.03936 | 18316 ft | 342 kts | 263° |
| 2026-05-09 01:54 | -32.84270 | -69.06766 | 18636 ft | 342 kts | 263° |
| 2026-05-09 01:54 | -32.84366 | -69.09567 | 18912 ft | 342 kts | 263° |
| 2026-05-09 01:54 | -32.84461 | -69.12394 | 19187 ft | 342 kts | 263° |
| 2026-05-09 01:55 | -32.84555 | -69.15223 | 19477 ft | 343 kts | 262° |
| 2026-05-09 01:55 | -32.84651 | -69.18059 | 19781 ft | 344 kts | 261° |
| 2026-05-09 01:55 | -32.84775 | -69.20896 | 20472 ft | 341 kts | 260° |
| 2026-05-09 01:55 | -32.84905 | -69.23709 | 21185 ft | 340 kts | 258° |
| 2026-05-09 01:56 | -32.85034 | -69.26504 | 21827 ft | 340 kts | 257° |
| 2026-05-09 01:56 | -32.85165 | -69.29321 | 22316 ft | 339 kts | 257° |
| 2026-05-09 01:56 | -32.85291 | -69.32078 | 22914 ft | 336 kts | 256° |
| 2026-05-09 01:56 | -32.85423 | -69.34897 | 23445 ft | 339 kts | 255° |
| 2026-05-09 01:57 | -32.85553 | -69.37690 | 23973 ft | 337 kts | 255° |
| 2026-05-09 01:57 | -32.85688 | -69.40501 | 24326 ft | 341 kts | 254° |
| 2026-05-09 01:57 | -32.85819 | -69.43275 | 24703 ft | 344 kts | 253° |
| 2026-05-09 01:57 | -32.85956 | -69.46187 | 24990 ft | 349 kts | 253° |
| 2026-05-09 01:58 | -32.86092 | -69.49086 | 25487 ft | 351 kts | 253° |
| 2026-05-09 01:58 | -32.86224 | -69.52002 | 25854 ft | 353 kts | 253° |
| 2026-05-09 01:58 | -32.86355 | -69.54866 | 26096 ft | 355 kts | 253° |
| 2026-05-09 01:58 | -32.86500 | -69.57882 | 26197 ft | 362 kts | 253° |
| 2026-05-09 01:59 | -32.86637 | -69.60856 | 26087 ft | 356 kts | 253° |
| 2026-05-09 01:59 | -32.86770 | -69.63807 | 26131 ft | 359 kts | 253° |
| 2026-05-09 01:59 | -32.86898 | -69.66712 | 26109 ft | 356 kts | 253° |
| 2026-05-09 01:59 | -32.87022 | -69.69665 | 26079 ft | 357 kts | 253° |
| 2026-05-09 02:00 | -32.87152 | -69.72613 | 26082 ft | 356 kts | 253° |
| 2026-05-09 02:00 | -32.87284 | -69.75578 | 26084 ft | 359 kts | 253° |
| 2026-05-09 02:00 | -32.87417 | -69.78534 | 26040 ft | 355 kts | 253° |
| 2026-05-09 02:00 | -32.87546 | -69.81463 | 26073 ft | 358 kts | 253° |
| 2026-05-09 02:01 | -32.87675 | -69.84423 | 26067 ft | 358 kts | 253° |
| 2026-05-09 02:01 | -32.87799 | -69.87354 | 26038 ft | 356 kts | 253° |
| 2026-05-09 02:01 | -32.87908 | -69.90312 | 26079 ft | 358 kts | 253° |
| 2026-05-09 02:01 | -32.88034 | -69.93244 | 25932 ft | 352 kts | 253° |
| 2026-05-09 02:02 | -32.88165 | -69.96148 | 25684 ft | 348 kts | 253° |
| 2026-05-09 02:02 | -32.88273 | -69.99023 | 25405 ft | 352 kts | 255° |
| 2026-05-09 02:02 | -32.88174 | -70.02017 | 25307 ft | 372 kts | 261° |
| 2026-05-09 02:02 | -32.87889 | -70.05092 | 25127 ft | 370 kts | 262° |
| 2026-05-09 02:03 | -32.87598 | -70.08055 | 24900 ft | 357 kts | 261° |
| 2026-05-09 02:03 | -32.87328 | -70.10987 | 24610 ft | 362 kts | 261° |
| 2026-05-09 02:03 | -32.87064 | -70.13980 | 24160 ft | 365 kts | 262° |
| 2026-05-09 02:03 | -32.86794 | -70.16967 | 23641 ft | 358 kts | 262° |
| 2026-05-09 02:04 | -32.86522 | -70.19855 | 23166 ft | 352 kts | 262° |
| 2026-05-09 02:04 | -32.86255 | -70.22773 | 22603 ft | 356 kts | 262° |
| 2026-05-09 02:04 | -32.85993 | -70.25697 | 22100 ft | 356 kts | 263° |
| 2026-05-09 02:04 | -32.85723 | -70.28636 | 21570 ft | 353 kts | 263° |
| 2026-05-09 02:05 | -32.85451 | -70.31539 | 21083 ft | 352 kts | 264° |
| 2026-05-09 02:05 | -32.85181 | -70.34442 | 20591 ft | 353 kts | 264° |
| 2026-05-09 02:05 | -32.84908 | -70.37330 | 20056 ft | 351 kts | 265° |
| 2026-05-09 02:05 | -32.84639 | -70.40219 | 19480 ft | 349 kts | 265° |
| 2026-05-09 02:06 | -32.84371 | -70.43084 | 18917 ft | 348 kts | 265° |
| 2026-05-09 02:06 | -32.84104 | -70.45934 | 18358 ft | 345 kts | 266° |
| 2026-05-09 02:06 | -32.83838 | -70.48764 | 17703 ft | 344 kts | 266° |
| 2026-05-09 02:07 | -32.83320 | -70.54367 | 16733 ft | 332 kts | 268° |
| 2026-05-09 02:07 | -32.83061 | -70.57024 | 16290 ft | 318 kts | 268° |
| 2026-05-09 02:07 | -32.82814 | -70.59615 | 15694 ft | 312 kts | 269° |
| 2026-05-09 02:07 | -32.82578 | -70.62144 | 15104 ft | 306 kts | 269° |
| 2026-05-09 02:08 | -32.82344 | -70.64648 | 14520 ft | 302 kts | 270° |
| 2026-05-09 02:08 | -32.82118 | -70.67106 | 13963 ft | 297 kts | 269° |
| 2026-05-09 02:08 | -32.82334 | -70.69488 | 13330 ft | 285 kts | 248° |
| 2026-05-09 02:08 | -32.83294 | -70.71494 | 12708 ft | 279 kts | 226° |
| 2026-05-09 02:09 | -32.84696 | -70.73067 | 12094 ft | 276 kts | 222° |
| 2026-05-09 02:09 | -32.86106 | -70.74610 | 11547 ft | 273 kts | 223° |
| 2026-05-09 02:09 | -32.87482 | -70.76133 | 11035 ft | 269 kts | 223° |
| 2026-05-09 02:09 | -32.88842 | -70.77643 | 10548 ft | 266 kts | 223° |
| 2026-05-09 02:10 | -32.90177 | -70.79127 | 10079 ft | 264 kts | 224° |
| 2026-05-09 02:10 | -32.91608 | -70.80524 | 9554 ft | 262 kts | 210° |
| 2026-05-09 02:10 | -32.93258 | -70.81278 | 9196 ft | 256 kts | 191° |
| 2026-05-09 02:10 | -32.95005 | -70.81535 | 8835 ft | 249 kts | 187° |
| 2026-05-09 02:11 | -32.96696 | -70.81784 | 8517 ft | 242 kts | 188° |
| 2026-05-09 02:11 | -32.98375 | -70.82047 | 8246 ft | 243 kts | 188° |
| 2026-05-09 02:11 | -33.00036 | -70.82306 | 7971 ft | 238 kts | 186° |
| 2026-05-09 02:11 | -33.01672 | -70.82324 | 7696 ft | 234 kts | 177° |
| 2026-05-09 02:12 | -33.03284 | -70.82226 | 7411 ft | 226 kts | 178° |
| 2026-05-09 02:12 | -33.04825 | -70.82145 | 7127 ft | 219 kts | 178° |
| 2026-05-09 02:12 | -33.06298 | -70.82067 | 6921 ft | 205 kts | 178° |
| 2026-05-09 02:12 | -33.07709 | -70.81990 | 6621 ft | 197 kts | 178° |
| 2026-05-09 02:13 | -33.09051 | -70.81914 | 6330 ft | 194 kts | 177° |
| 2026-05-09 02:13 | -33.10393 | -70.81837 | 6015 ft | 191 kts | 177° |
| 2026-05-09 02:13 | -33.11690 | -70.81764 | 5721 ft | 189 kts | 177° |
| 2026-05-09 02:13 | -33.12996 | -70.81690 | 5421 ft | 186 kts | 177° |
| 2026-05-09 02:14 | -33.14280 | -70.81618 | 5117 ft | 184 kts | 177° |
| 2026-05-09 02:14 | -33.15525 | -70.81548 | 5002 ft | 171 kts | 177° |
| 2026-05-09 02:14 | -33.16655 | -70.81483 | 5004 ft | 155 kts | 176° |
| 2026-05-09 02:14 | -33.17743 | -70.81420 | 5008 ft | 158 kts | 176° |
| 2026-05-09 02:15 | -33.18835 | -70.81357 | 5004 ft | 156 kts | 176° |
| 2026-05-09 02:15 | -33.19911 | -70.81295 | 4874 ft | 155 kts | 176° |
| 2026-05-09 02:15 | -33.20984 | -70.81239 | 4667 ft | 153 kts | 177° |
| 2026-05-09 02:15 | -33.22038 | -70.81184 | 4396 ft | 150 kts | 176° |
| 2026-05-09 02:16 | -33.23073 | -70.81129 | 4072 ft | 147 kts | 176° |
| 2026-05-09 02:16 | -33.24040 | -70.81077 | 3880 ft | 134 kts | 177° |
| 2026-05-09 02:16 | -33.24962 | -70.81028 | 3587 ft | 131 kts | 177° |
| 2026-05-09 02:16 | -33.25853 | -70.80982 | 3485 ft | 128 kts | 177° |
| 2026-05-09 02:17 | -33.26772 | -70.80932 | 3505 ft | 133 kts | 177° |
| 2026-05-09 02:17 | -33.27693 | -70.80882 | 3512 ft | 133 kts | 177° |
| 2026-05-09 02:17 | -33.28623 | -70.80832 | 3415 ft | 134 kts | 177° |
| 2026-05-09 02:17 | -33.29542 | -70.80782 | 3257 ft | 131 kts | 177° |
| 2026-05-09 02:18 | -33.30458 | -70.80733 | 3093 ft | 132 kts | 177° |
| 2026-05-09 02:18 | -33.31373 | -70.80684 | 2906 ft | 131 kts | 177° |
| 2026-05-09 02:18 | -33.32289 | -70.80634 | 2641 ft | 133 kts | 178° |
| 2026-05-09 02:18 | -33.33197 | -70.80587 | 2342 ft | 129 kts | 178° |
| 2026-05-09 02:19 | -33.34108 | -70.80545 | 2110 ft | 131 kts | 176° |
| 2026-05-09 02:19 | -33.34996 | -70.80492 | 1937 ft | 129 kts | 176° |
| 2026-05-09 02:19 | -33.35909 | -70.80441 | 1734 ft | 128 kts | 176° |
| 2026-05-09 02:19 | -33.36786 | -70.80402 | 1623 ft | 128 kts | 175° |
| 2026-05-09 02:20 | -33.37626 | -70.80349 | 1573 ft | 102 kts | 177° |
| 2026-05-09 02:20 | -33.38155 | -70.80322 | 1571 ft | 51 kts | 178° |
| 2026-05-09 02:20 | -33.38376 | -70.80310 | 1573 ft | 28 kts | 177° |
| 2026-05-09 02:20 | -33.38680 | -70.80292 | 1574 ft | 49 kts | 176° |
| 2026-05-09 02:21 | -33.38994 | -70.80276 | 1574 ft | 25 kts | 178° |
| 2026-05-09 02:21 | -33.39142 | -70.80266 | 1573 ft | 22 kts | 176° |
| 2026-05-09 02:21 | -33.39290 | -70.80223 | 1572 ft | 22 kts | 156° |
| 2026-05-09 02:21 | -33.39321 | -70.80204 | 1572 ft | 2 kts | 151° |
| 2026-05-09 02:22 | -33.39349 | -70.80185 | 1571 ft | 7 kts | 149° |
| 2026-05-09 02:22 | -33.39403 | -70.80146 | 1569 ft | 12 kts | 148° |